Fayetteville, NY (13066)

9:51 PM EST on February 13, 2016 (GMT -0500)
KC2HUX - Fayetteville Heights | | Change Station
CLOSE
Current Station
Personal Weather Station
Location: Fayetteville, NY
Elevation: 730 ft
Nearby Weather Stations
Active Advisory: Wind Chill Warning Active Notice: Local Storm Report

Elev 730 ft 43.03 °N, 75.98 °W | Updated 10 seconds ago

Overcast
Overcast
-7.7 °F
Feels Like -8 °F
N
0.0
Wind Variable Wind from North
Gusts 0.0 mph

Today
High -- | Low -- °F
--% Chance of Precip.
Yesterday
High -- | Low -- °F
Precip. -- in
Pressure 30.37 in
Visibility 1.5 miles
Clouds Overcast 1600 ft
Windchill -8 °F
Dew Point -12 °F
Humidity 82%
Rainfall 0.00 in
Snow Depth Not available.
7:05 AM 5:32 PM
Waxing Crescent, 36% visible
SPECI KSYR 140227Z 01006KT 1 1/2SM -SN BR OVC016 M23/M25 A3037 RMK AO2 VIS 1V2 P0000 T12281250 $
Pressure 30.37 in
Visibility 1.5 miles
Clouds Overcast 1600 ft
Windchill -8 °F
Dew Point -12 °F
Humidity 82%
Rainfall 0.00 in
Snow Depth Not available.
7:05 AM 5:32 PM
Waxing Crescent, 36% visible
SPECI KSYR 140227Z 01006KT 1 1/2SM -SN BR OVC016 M23/M25 A3037 RMK AO2 VIS 1V2 P0000 T12281250 $

10-Day Weather Forecast

Almanac

Astronomy

Feb. 13, 2016 Rise Set
Actual Time
Civil Twilight
Nautical Twilight
Astronomical Twilight
Moon
Length of Visible Light
Length of Day
Tomorrow will be .
, % of the Moon is Illuminated

Today's Extremes

State Highs State Lows

Community

WunderPhotos

Upload Photos

1,892,731 photos uploaded!

WunderBlog® & News

Nearby

Air Quality

  Air Quality AQ Index Pollutant
Not available.

Snow Depth

Station Depth Elevation

Earthquake Activity

City Distance Mag. Time & Date
Minimum magnitude displayed is 2.5.

Coastal Water Temperatures

Place Temperature

Stations

Nearby Weather Stations

Station Location Temp. Windchill Dew Point Humidity Wind Precip. Elev Updated Type
                   

Watches & Warnings

Wind Chill Warning
Issued: 9:38 PM EST Feb. 13, 2016 – National Weather Service

... Wind chill warning remains in effect until 1 PM EST Sunday...

* locations... the southern tier... Syracuse area and The Finger
lakes regions of New York.

* Hazard types... dangerously low wind chills and extreme cold.

* Timing... through Sunday morning.

* Impacts... potential for frostbite and hypothermia. The extreme
cold may also lead to pipes freezing.

* Wind chill readings... as low as 29 below. Lowest wind chill
values will be over the higher terrain.

* Winds... northwest 10 to 20 mph with gusts up to 30
mph... gradually diminishing overnight through Sunday morning.

* Temperatures... near zero to 10 below zero overnight into Sunday
morning. Above zero by midday Sunday.

Precautionary/preparedness actions...

A wind chill warning means the combination of very cold air and
strong winds will create dangerously low wind chill values. This
will result in frost bite and lead to hypothermia or death if
precautions are not taken.